sensor_id;sensor_type;location;lat;lon;timestamp;P1;durP1;ratioP1;P2;durP2;ratioP2
24677;SDS011;12800;53.094;8.778;2022-12-11T00:00:04;21.00;;;11.63;;
24677;SDS011;12800;53.094;8.778;2022-12-11T00:02:32;15.03;;;11.07;;
24677;SDS011;12800;53.094;8.778;2022-12-11T00:04:57;17.33;;;10.80;;
24677;SDS011;12800;53.094;8.778;2022-12-11T00:07:23;16.63;;;10.53;;
24677;SDS011;12800;53.094;8.778;2022-12-11T00:09:49;17.70;;;10.87;;
24677;SDS011;12800;53.094;8.778;2022-12-11T00:12:14;15.60;;;10.60;;
24677;SDS011;12800;53.094;8.778;2022-12-11T00:14:40;18.90;;;11.03;;
24677;SDS011;12800;53.094;8.778;2022-12-11T00:17:06;18.20;;;11.23;;
24677;SDS011;12800;53.094;8.778;2022-12-11T00:19:31;16.63;;;10.83;;
24677;SDS011;12800;53.094;8.778;2022-12-11T00:21:57;17.20;;;11.37;;
24677;SDS011;12800;53.094;8.778;2022-12-11T00:24:22;19.57;;;12.20;;
24677;SDS011;12800;53.094;8.778;2022-12-11T00:26:48;40.33;;;25.00;;
24677;SDS011;12800;53.094;8.778;2022-12-11T00:29:14;17.27;;;10.90;;
24677;SDS011;12800;53.094;8.778;2022-12-11T00:31:42;17.27;;;10.60;;
24677;SDS011;12800;53.094;8.778;2022-12-11T00:34:08;14.77;;;10.40;;
24677;SDS011;12800;53.094;8.778;2022-12-11T00:36:36;14.37;;;10.23;;
24677;SDS011;12800;53.094;8.778;2022-12-11T00:39:02;18.30;;;10.57;;
24677;SDS011;12800;53.094;8.778;2022-12-11T00:41:28;15.33;;;10.20;;
24677;SDS011;12800;53.094;8.778;2022-12-11T00:43:55;16.00;;;10.67;;
24677;SDS011;12800;53.094;8.778;2022-12-11T00:46:20;16.80;;;10.13;;
24677;SDS011;12800;53.094;8.778;2022-12-11T00:48:46;15.47;;;10.03;;
24677;SDS011;12800;53.094;8.778;2022-12-11T00:51:13;17.93;;;10.83;;
24677;SDS011;12800;53.094;8.778;2022-12-11T00:53:40;17.03;;;11.60;;
24677;SDS011;12800;53.094;8.778;2022-12-11T00:56:12;19.17;;;11.10;;
24677;SDS011;12800;53.094;8.778;2022-12-11T00:58:39;18.40;;;10.97;;
24677;SDS011;12800;53.094;8.778;2022-12-11T01:01:06;16.67;;;10.63;;
24677;SDS011;12800;53.094;8.778;2022-12-11T01:03:34;15.07;;;9.60;;
24677;SDS011;12800;53.094;8.778;2022-12-11T01:06:00;16.30;;;9.87;;
24677;SDS011;12800;53.094;8.778;2022-12-11T01:08:26;17.47;;;10.97;;
24677;SDS011;12800;53.094;8.778;2022-12-11T01:10:59;15.63;;;10.40;;
24677;SDS011;12800;53.094;8.778;2022-12-11T01:13:30;17.03;;;10.90;;
24677;SDS011;12800;53.094;8.778;2022-12-11T01:15:56;15.67;;;10.47;;
24677;SDS011;12800;53.094;8.778;2022-12-11T01:18:22;15.87;;;10.17;;
24677;SDS011;12800;53.094;8.778;2022-12-11T01:20:48;18.13;;;11.00;;
24677;SDS011;12800;53.094;8.778;2022-12-11T01:23:13;18.83;;;11.90;;
24677;SDS011;12800;53.094;8.778;2022-12-11T01:25:39;17.13;;;10.53;;
24677;SDS011;12800;53.094;8.778;2022-12-11T01:28:05;17.27;;;10.83;;
24677;SDS011;12800;53.094;8.778;2022-12-11T01:30:31;17.37;;;10.80;;
24677;SDS011;12800;53.094;8.778;2022-12-11T01:32:57;14.43;;;9.90;;
24677;SDS011;12800;53.094;8.778;2022-12-11T01:35:22;16.00;;;10.50;;
24677;SDS011;12800;53.094;8.778;2022-12-11T01:37:48;18.33;;;10.87;;
24677;SDS011;12800;53.094;8.778;2022-12-11T01:40:15;17.83;;;10.97;;
24677;SDS011;12800;53.094;8.778;2022-12-11T01:42:43;16.77;;;10.07;;
24677;SDS011;12800;53.094;8.778;2022-12-11T01:47:47;15.70;;;9.83;;
24677;SDS011;12800;53.094;8.778;2022-12-11T01:50:14;17.87;;;10.80;;
24677;SDS011;12800;53.094;8.778;2022-12-11T01:52:40;17.20;;;11.47;;
24677;SDS011;12800;53.094;8.778;2022-12-11T01:55:08;15.43;;;10.40;;
24677;SDS011;12800;53.094;8.778;2022-12-11T01:57:38;41.47;;;25.03;;
24677;SDS011;12800;53.094;8.778;2022-12-11T02:00:08;21.73;;;12.43;;
24677;SDS011;12800;53.094;8.778;2022-12-11T02:02:34;16.37;;;10.93;;
24677;SDS011;12800;53.094;8.778;2022-12-11T02:05:02;16.43;;;10.33;;
24677;SDS011;12800;53.094;8.778;2022-12-11T02:07:31;16.70;;;10.10;;
24677;SDS011;12800;53.094;8.778;2022-12-11T02:10:04;18.03;;;10.83;;
24677;SDS011;12800;53.094;8.778;2022-12-11T02:12:38;14.47;;;9.90;;
24677;SDS011;12800;53.094;8.778;2022-12-11T02:15:22;17.80;;;11.63;;
24677;SDS011;12800;53.094;8.778;2022-12-11T02:20:57;20.07;;;12.43;;
24677;SDS011;12800;53.094;8.778;2022-12-11T02:23:41;15.87;;;11.13;;
24677;SDS011;12800;53.094;8.778;2022-12-11T02:28:53;15.30;;;10.70;;
24677;SDS011;12800;53.094;8.778;2022-12-11T02:31:26;19.23;;;10.93;;
24677;SDS011;12800;53.094;8.778;2022-12-11T02:33:57;13.80;;;9.47;;
24677;SDS011;12800;53.094;8.778;2022-12-11T02:36:30;18.27;;;10.57;;
24677;SDS011;12800;53.094;8.778;2022-12-11T02:39:00;17.33;;;11.20;;
24677;SDS011;12800;53.094;8.778;2022-12-11T02:41:26;16.13;;;10.47;;
24677;SDS011;12800;53.094;8.778;2022-12-11T02:43:53;15.70;;;10.17;;
24677;SDS011;12800;53.094;8.778;2022-12-11T02:46:21;17.00;;;10.37;;
24677;SDS011;12800;53.094;8.778;2022-12-11T02:48:49;15.47;;;9.60;;
24677;SDS011;12800;53.094;8.778;2022-12-11T02:51:17;17.40;;;10.67;;
24677;SDS011;12800;53.094;8.778;2022-12-11T02:53:49;17.77;;;10.80;;
24677;SDS011;12800;53.094;8.778;2022-12-11T02:56:19;17.13;;;10.97;;
24677;SDS011;12800;53.094;8.778;2022-12-11T02:58:53;16.33;;;10.30;;
24677;SDS011;12800;53.094;8.778;2022-12-11T03:01:23;16.03;;;10.63;;
24677;SDS011;12800;53.094;8.778;2022-12-11T03:03:50;14.70;;;10.03;;
24677;SDS011;12800;53.094;8.778;2022-12-11T03:06:16;15.63;;;10.53;;
24677;SDS011;12800;53.094;8.778;2022-12-11T03:08:46;15.77;;;10.30;;
24677;SDS011;12800;53.094;8.778;2022-12-11T03:11:15;17.90;;;10.87;;
24677;SDS011;12800;53.094;8.778;2022-12-11T03:13:41;15.87;;;9.70;;
24677;SDS011;12800;53.094;8.778;2022-12-11T03:18:57;17.80;;;11.37;;
24677;SDS011;12800;53.094;8.778;2022-12-11T03:21:58;15.10;;;10.00;;
24677;SDS011;12800;53.094;8.778;2022-12-11T03:29:49;16.00;;;10.60;;
24677;SDS011;12800;53.094;8.778;2022-12-11T03:32:21;17.67;;;11.00;;
24677;SDS011;12800;53.094;8.778;2022-12-11T03:34:53;19.30;;;11.17;;
24677;SDS011;12800;53.094;8.778;2022-12-11T03:37:25;19.27;;;11.70;;
24677;SDS011;12800;53.094;8.778;2022-12-11T03:39:57;15.77;;;10.27;;
24677;SDS011;12800;53.094;8.778;2022-12-11T03:42:26;16.07;;;10.57;;
24677;SDS011;12800;53.094;8.778;2022-12-11T03:44:52;19.43;;;10.93;;
24677;SDS011;12800;53.094;8.778;2022-12-11T03:47:21;15.13;;;9.97;;
24677;SDS011;12800;53.094;8.778;2022-12-11T03:49:49;15.00;;;10.77;;
24677;SDS011;12800;53.094;8.778;2022-12-11T03:52:16;15.73;;;9.80;;
24677;SDS011;12800;53.094;8.778;2022-12-11T03:54:43;16.70;;;10.83;;
24677;SDS011;12800;53.094;8.778;2022-12-11T03:57:12;16.57;;;10.53;;
24677;SDS011;12800;53.094;8.778;2022-12-11T03:59:40;16.63;;;10.73;;
24677;SDS011;12800;53.094;8.778;2022-12-11T04:02:06;16.37;;;10.53;;
24677;SDS011;12800;53.094;8.778;2022-12-11T04:04:38;18.37;;;11.63;;
24677;SDS011;12800;53.094;8.778;2022-12-11T04:07:05;16.57;;;10.80;;
24677;SDS011;12800;53.094;8.778;2022-12-11T04:09:31;17.47;;;10.47;;
24677;SDS011;12800;53.094;8.778;2022-12-11T04:11:57;16.40;;;10.50;;
24677;SDS011;12800;53.094;8.778;2022-12-11T04:14:23;17.97;;;11.03;;
24677;SDS011;12800;53.094;8.778;2022-12-11T04:17:07;16.40;;;10.60;;
24677;SDS011;12800;53.094;8.778;2022-12-11T04:19:33;15.23;;;9.77;;
24677;SDS011;12800;53.094;8.778;2022-12-11T04:22:17;17.03;;;10.97;;
24677;SDS011;12800;53.094;8.778;2022-12-11T04:25:03;18.13;;;10.63;;
24677;SDS011;12800;53.094;8.778;2022-12-11T04:27:30;17.97;;;11.23;;
24677;SDS011;12800;53.094;8.778;2022-12-11T04:30:21;18.27;;;11.93;;
24677;SDS011;12800;53.094;8.778;2022-12-11T04:32:48;18.07;;;11.13;;
24677;SDS011;12800;53.094;8.778;2022-12-11T04:35:14;19.17;;;11.23;;
24677;SDS011;12800;53.094;8.778;2022-12-11T04:37:40;17.30;;;10.97;;
24677;SDS011;12800;53.094;8.778;2022-12-11T04:40:07;15.30;;;10.57;;
24677;SDS011;12800;53.094;8.778;2022-12-11T04:42:35;17.83;;;10.10;;
24677;SDS011;12800;53.094;8.778;2022-12-11T04:45:01;14.90;;;9.83;;
24677;SDS011;12800;53.094;8.778;2022-12-11T04:47:27;16.70;;;10.23;;
24677;SDS011;12800;53.094;8.778;2022-12-11T04:49:52;16.33;;;10.40;;
24677;SDS011;12800;53.094;8.778;2022-12-11T04:52:18;17.07;;;10.97;;
24677;SDS011;12800;53.094;8.778;2022-12-11T04:54:43;17.23;;;10.40;;
24677;SDS011;12800;53.094;8.778;2022-12-11T04:57:09;18.37;;;10.17;;
24677;SDS011;12800;53.094;8.778;2022-12-11T04:59:35;15.77;;;10.40;;
24677;SDS011;12800;53.094;8.778;2022-12-11T05:02:01;15.33;;;10.37;;
24677;SDS011;12800;53.094;8.778;2022-12-11T05:04:29;15.80;;;9.70;;
24677;SDS011;12800;53.094;8.778;2022-12-11T05:06:56;14.83;;;10.17;;
24677;SDS011;12800;53.094;8.778;2022-12-11T05:09:22;17.90;;;11.47;;
24677;SDS011;12800;53.094;8.778;2022-12-11T05:11:48;17.93;;;10.23;;
24677;SDS011;12800;53.094;8.778;2022-12-11T05:14:13;16.63;;;10.97;;
24677;SDS011;12800;53.094;8.778;2022-12-11T05:16:39;14.97;;;10.40;;
24677;SDS011;12800;53.094;8.778;2022-12-11T05:19:04;14.93;;;9.87;;
24677;SDS011;12800;53.094;8.778;2022-12-11T05:21:30;17.80;;;10.97;;
24677;SDS011;12800;53.094;8.778;2022-12-11T05:23:56;15.60;;;10.53;;
24677;SDS011;12800;53.094;8.778;2022-12-11T05:26:21;16.70;;;10.50;;
24677;SDS011;12800;53.094;8.778;2022-12-11T05:28:49;18.33;;;10.63;;
24677;SDS011;12800;53.094;8.778;2022-12-11T05:31:18;18.50;;;10.97;;
24677;SDS011;12800;53.094;8.778;2022-12-11T05:33:45;15.93;;;10.80;;
24677;SDS011;12800;53.094;8.778;2022-12-11T05:36:12;17.37;;;10.33;;
24677;SDS011;12800;53.094;8.778;2022-12-11T05:38:50;16.50;;;10.13;;
24677;SDS011;12800;53.094;8.778;2022-12-11T05:41:18;17.90;;;10.53;;
24677;SDS011;12800;53.094;8.778;2022-12-11T05:43:45;19.33;;;11.20;;
24677;SDS011;12800;53.094;8.778;2022-12-11T05:46:12;18.00;;;11.23;;
24677;SDS011;12800;53.094;8.778;2022-12-11T05:48:40;15.13;;;9.87;;
24677;SDS011;12800;53.094;8.778;2022-12-11T05:51:07;15.77;;;10.37;;
24677;SDS011;12800;53.094;8.778;2022-12-11T05:53:34;17.10;;;10.80;;
24677;SDS011;12800;53.094;8.778;2022-12-11T05:56:05;13.80;;;9.57;;
24677;SDS011;12800;53.094;8.778;2022-12-11T05:58:32;18.50;;;10.73;;
24677;SDS011;12800;53.094;8.778;2022-12-11T06:00:59;18.47;;;10.23;;
24677;SDS011;12800;53.094;8.778;2022-12-11T06:03:24;14.33;;;9.57;;
24677;SDS011;12800;53.094;8.778;2022-12-11T06:05:50;15.40;;;9.83;;
24677;SDS011;12800;53.094;8.778;2022-12-11T06:08:16;13.40;;;9.40;;
24677;SDS011;12800;53.094;8.778;2022-12-11T06:10:45;15.63;;;10.73;;
24677;SDS011;12800;53.094;8.778;2022-12-11T06:13:12;18.37;;;9.57;;
24677;SDS011;12800;53.094;8.778;2022-12-11T06:15:38;18.03;;;10.80;;
24677;SDS011;12800;53.094;8.778;2022-12-11T06:18:03;18.00;;;10.63;;
24677;SDS011;12800;53.094;8.778;2022-12-11T06:20:30;16.87;;;10.60;;
24677;SDS011;12800;53.094;8.778;2022-12-11T06:22:57;15.60;;;9.57;;
24677;SDS011;12800;53.094;8.778;2022-12-11T06:25:23;16.87;;;9.90;;
24677;SDS011;12800;53.094;8.778;2022-12-11T06:27:49;15.77;;;10.80;;
24677;SDS011;12800;53.094;8.778;2022-12-11T06:30:14;17.70;;;10.83;;
24677;SDS011;12800;53.094;8.778;2022-12-11T06:32:40;14.67;;;10.10;;
24677;SDS011;12800;53.094;8.778;2022-12-11T06:35:06;18.67;;;11.60;;
24677;SDS011;12800;53.094;8.778;2022-12-11T06:37:33;15.57;;;10.57;;
24677;SDS011;12800;53.094;8.778;2022-12-11T06:40:00;17.30;;;10.40;;
24677;SDS011;12800;53.094;8.778;2022-12-11T06:42:26;15.93;;;9.70;;
24677;SDS011;12800;53.094;8.778;2022-12-11T06:44:54;17.70;;;10.33;;
24677;SDS011;12800;53.094;8.778;2022-12-11T06:47:21;16.90;;;9.87;;
24677;SDS011;12800;53.094;8.778;2022-12-11T06:49:47;20.43;;;10.23;;
24677;SDS011;12800;53.094;8.778;2022-12-11T06:52:13;15.93;;;10.80;;
24677;SDS011;12800;53.094;8.778;2022-12-11T06:54:38;15.90;;;10.50;;
24677;SDS011;12800;53.094;8.778;2022-12-11T06:57:04;14.53;;;9.80;;
24677;SDS011;12800;53.094;8.778;2022-12-11T06:59:29;17.30;;;9.83;;
24677;SDS011;12800;53.094;8.778;2022-12-11T07:01:55;16.33;;;10.13;;
24677;SDS011;12800;53.094;8.778;2022-12-11T07:04:20;15.20;;;10.10;;
24677;SDS011;12800;53.094;8.778;2022-12-11T07:06:48;16.77;;;10.50;;
24677;SDS011;12800;53.094;8.778;2022-12-11T07:09:14;14.67;;;9.27;;
24677;SDS011;12800;53.094;8.778;2022-12-11T07:11:40;15.40;;;10.40;;
24677;SDS011;12800;53.094;8.778;2022-12-11T07:14:05;16.57;;;10.60;;
24677;SDS011;12800;53.094;8.778;2022-12-11T07:16:31;17.20;;;10.43;;
24677;SDS011;12800;53.094;8.778;2022-12-11T07:18:57;16.23;;;10.20;;
24677;SDS011;12800;53.094;8.778;2022-12-11T07:21:23;16.13;;;10.17;;
24677;SDS011;12800;53.094;8.778;2022-12-11T07:23:48;15.97;;;9.23;;
24677;SDS011;12800;53.094;8.778;2022-12-11T07:26:15;17.53;;;10.67;;
24677;SDS011;12800;53.094;8.778;2022-12-11T07:28:42;16.77;;;10.57;;
24677;SDS011;12800;53.094;8.778;2022-12-11T07:31:09;17.97;;;10.90;;
24677;SDS011;12800;53.094;8.778;2022-12-11T07:33:37;16.80;;;10.73;;
24677;SDS011;12800;53.094;8.778;2022-12-11T07:36:04;21.30;;;12.80;;
24677;SDS011;12800;53.094;8.778;2022-12-11T07:38:31;17.50;;;10.73;;
24677;SDS011;12800;53.094;8.778;2022-12-11T07:41:01;18.80;;;10.93;;
24677;SDS011;12800;53.094;8.778;2022-12-11T07:43:29;15.87;;;10.33;;
24677;SDS011;12800;53.094;8.778;2022-12-11T07:45:59;16.20;;;10.63;;
24677;SDS011;12800;53.094;8.778;2022-12-11T07:48:26;14.50;;;10.00;;
24677;SDS011;12800;53.094;8.778;2022-12-11T07:50:52;15.67;;;10.10;;
24677;SDS011;12800;53.094;8.778;2022-12-11T07:53:17;17.73;;;11.93;;
24677;SDS011;12800;53.094;8.778;2022-12-11T07:55:43;14.87;;;10.27;;
24677;SDS011;12800;53.094;8.778;2022-12-11T07:58:08;16.13;;;10.77;;
24677;SDS011;12800;53.094;8.778;2022-12-11T08:00:34;18.10;;;10.93;;
24677;SDS011;12800;53.094;8.778;2022-12-11T08:03:00;18.17;;;11.63;;
24677;SDS011;12800;53.094;8.778;2022-12-11T08:05:25;17.23;;;11.03;;
24677;SDS011;12800;53.094;8.778;2022-12-11T08:07:51;17.83;;;11.13;;
24677;SDS011;12800;53.094;8.778;2022-12-11T08:10:16;18.63;;;10.57;;
24677;SDS011;12800;53.094;8.778;2022-12-11T08:12:42;17.00;;;10.83;;
24677;SDS011;12800;53.094;8.778;2022-12-11T08:15:08;18.37;;;11.13;;
24677;SDS011;12800;53.094;8.778;2022-12-11T08:17:34;15.23;;;10.40;;
24677;SDS011;12800;53.094;8.778;2022-12-11T08:19:59;17.30;;;10.77;;
24677;SDS011;12800;53.094;8.778;2022-12-11T08:22:25;16.57;;;10.10;;
24677;SDS011;12800;53.094;8.778;2022-12-11T08:24:50;14.80;;;10.30;;
24677;SDS011;12800;53.094;8.778;2022-12-11T08:27:16;17.87;;;11.23;;
24677;SDS011;12800;53.094;8.778;2022-12-11T08:29:41;18.33;;;12.37;;
24677;SDS011;12800;53.094;8.778;2022-12-11T08:32:07;18.33;;;11.13;;
24677;SDS011;12800;53.094;8.778;2022-12-11T08:34:33;19.00;;;10.37;;
24677;SDS011;12800;53.094;8.778;2022-12-11T08:36:59;16.73;;;10.63;;
24677;SDS011;12800;53.094;8.778;2022-12-11T08:39:24;17.83;;;10.40;;
24677;SDS011;12800;53.094;8.778;2022-12-11T08:41:50;15.70;;;9.83;;
24677;SDS011;12800;53.094;8.778;2022-12-11T08:44:16;17.20;;;10.80;;
24677;SDS011;12800;53.094;8.778;2022-12-11T08:46:41;16.83;;;10.80;;
24677;SDS011;12800;53.094;8.778;2022-12-11T08:49:08;15.97;;;11.07;;
24677;SDS011;12800;53.094;8.778;2022-12-11T08:51:34;17.73;;;10.17;;
24677;SDS011;12800;53.094;8.778;2022-12-11T08:54:00;16.73;;;10.67;;
24677;SDS011;12800;53.094;8.778;2022-12-11T08:56:26;19.73;;;10.27;;
24677;SDS011;12800;53.094;8.778;2022-12-11T08:58:52;18.87;;;11.17;;
24677;SDS011;12800;53.094;8.778;2022-12-11T09:01:19;19.17;;;10.80;;
24677;SDS011;12800;53.094;8.778;2022-12-11T09:03:47;14.97;;;9.93;;
24677;SDS011;12800;53.094;8.778;2022-12-11T09:06:14;14.73;;;10.07;;
24677;SDS011;12800;53.094;8.778;2022-12-11T09:08:42;17.93;;;11.77;;
24677;SDS011;12800;53.094;8.778;2022-12-11T09:11:10;16.23;;;10.60;;
24677;SDS011;12800;53.094;8.778;2022-12-11T09:13:41;15.40;;;10.53;;
24677;SDS011;12800;53.094;8.778;2022-12-11T09:16:08;21.90;;;12.80;;
24677;SDS011;12800;53.094;8.778;2022-12-11T09:18:36;22.70;;;12.30;;
24677;SDS011;12800;53.094;8.778;2022-12-11T09:21:05;15.23;;;10.77;;
24677;SDS011;12800;53.094;8.778;2022-12-11T09:23:37;14.70;;;10.30;;
24677;SDS011;12800;53.094;8.778;2022-12-11T09:26:06;12.77;;;9.83;;
24677;SDS011;12800;53.094;8.778;2022-12-11T09:28:35;15.23;;;10.37;;
24677;SDS011;12800;53.094;8.778;2022-12-11T09:31:01;16.43;;;10.03;;
24677;SDS011;12800;53.094;8.778;2022-12-11T09:33:39;20.43;;;11.30;;
24677;SDS011;12800;53.094;8.778;2022-12-11T09:36:05;18.33;;;10.97;;
24677;SDS011;12800;53.094;8.778;2022-12-11T09:38:31;18.70;;;10.60;;
24677;SDS011;12800;53.094;8.778;2022-12-11T09:40:57;17.17;;;11.07;;
24677;SDS011;12800;53.094;8.778;2022-12-11T09:43:37;15.73;;;9.90;;
24677;SDS011;12800;53.094;8.778;2022-12-11T09:46:13;18.00;;;10.63;;
24677;SDS011;12800;53.094;8.778;2022-12-11T09:48:40;15.80;;;11.10;;
24677;SDS011;12800;53.094;8.778;2022-12-11T09:51:14;17.23;;;11.30;;
24677;SDS011;12800;53.094;8.778;2022-12-11T09:54:01;23.00;;;10.87;;
24677;SDS011;12800;53.094;8.778;2022-12-11T09:56:32;21.20;;;11.70;;
24677;SDS011;12800;53.094;8.778;2022-12-11T10:01:45;17.43;;;11.47;;
24677;SDS011;12800;53.094;8.778;2022-12-11T10:12:21;21.37;;;11.63;;
24677;SDS011;12800;53.094;8.778;2022-12-11T10:17:40;24.90;;;15.67;;
24677;SDS011;12800;53.094;8.778;2022-12-11T10:22:52;21.83;;;12.33;;
24677;SDS011;12800;53.094;8.778;2022-12-11T10:25:30;25.83;;;12.63;;
24677;SDS011;12800;53.094;8.778;2022-12-11T10:27:59;20.40;;;11.83;;
24677;SDS011;12800;53.094;8.778;2022-12-11T10:30:45;19.83;;;11.87;;
24677;SDS011;12800;53.094;8.778;2022-12-11T10:33:23;23.63;;;12.57;;
24677;SDS011;12800;53.094;8.778;2022-12-11T10:36:04;23.73;;;13.53;;
24677;SDS011;12800;53.094;8.778;2022-12-11T10:38:33;24.17;;;12.50;;
24677;SDS011;12800;53.094;8.778;2022-12-11T10:41:05;20.03;;;12.13;;
24677;SDS011;12800;53.094;8.778;2022-12-11T10:43:39;27.03;;;12.63;;
24677;SDS011;12800;53.094;8.778;2022-12-11T10:46:13;26.07;;;12.53;;
24677;SDS011;12800;53.094;8.778;2022-12-11T10:51:12;21.67;;;11.50;;
24677;SDS011;12800;53.094;8.778;2022-12-11T10:53:39;24.43;;;12.73;;
24677;SDS011;12800;53.094;8.778;2022-12-11T10:56:07;21.00;;;12.43;;
24677;SDS011;12800;53.094;8.778;2022-12-11T10:58:33;21.33;;;11.27;;
24677;SDS011;12800;53.094;8.778;2022-12-11T11:03:34;22.47;;;12.40;;
24677;SDS011;12800;53.094;8.778;2022-12-11T11:06:15;24.70;;;13.20;;
24677;SDS011;12800;53.094;8.778;2022-12-11T11:08:45;20.83;;;12.53;;
24677;SDS011;12800;53.094;8.778;2022-12-11T11:14:02;19.20;;;11.80;;
24677;SDS011;12800;53.094;8.778;2022-12-11T11:16:37;20.70;;;12.93;;
24677;SDS011;12800;53.094;8.778;2022-12-11T11:19:05;20.07;;;12.20;;
24677;SDS011;12800;53.094;8.778;2022-12-11T11:21:32;23.60;;;12.67;;
24677;SDS011;12800;53.094;8.778;2022-12-11T11:23:59;22.03;;;12.23;;
24677;SDS011;12800;53.094;8.778;2022-12-11T11:26:25;20.70;;;11.70;;
24677;SDS011;12800;53.094;8.778;2022-12-11T11:28:55;21.97;;;11.83;;
24677;SDS011;12800;53.094;8.778;2022-12-11T11:31:29;23.63;;;13.33;;
24677;SDS011;12800;53.094;8.778;2022-12-11T11:33:57;38.30;;;20.60;;
24677;SDS011;12800;53.094;8.778;2022-12-11T11:36:33;67.13;;;25.87;;
24677;SDS011;12800;53.094;8.778;2022-12-11T11:39:16;23.27;;;13.37;;
24677;SDS011;12800;53.094;8.778;2022-12-11T11:44:49;24.10;;;12.50;;
24677;SDS011;12800;53.094;8.778;2022-12-11T11:47:44;22.07;;;11.83;;
24677;SDS011;12800;53.094;8.778;2022-12-11T11:50:26;23.80;;;13.43;;
24677;SDS011;12800;53.094;8.778;2022-12-11T11:55:53;21.27;;;13.07;;
24677;SDS011;12800;53.094;8.778;2022-12-11T11:58:36;22.30;;;12.47;;
24677;SDS011;12800;53.094;8.778;2022-12-11T12:01:15;22.77;;;12.53;;
24677;SDS011;12800;53.094;8.778;2022-12-11T12:03:44;23.73;;;12.73;;
24677;SDS011;12800;53.094;8.778;2022-12-11T12:11:48;23.43;;;12.73;;
24677;SDS011;12800;53.094;8.778;2022-12-11T12:14:29;22.63;;;12.87;;
24677;SDS011;12800;53.094;8.778;2022-12-11T12:19:39;23.43;;;13.60;;
24677;SDS011;12800;53.094;8.778;2022-12-11T12:22:18;21.00;;;12.83;;
24677;SDS011;12800;53.094;8.778;2022-12-11T12:27:50;21.57;;;12.27;;
24677;SDS011;12800;53.094;8.778;2022-12-11T12:30:24;23.73;;;12.73;;
24677;SDS011;12800;53.094;8.778;2022-12-11T12:36:29;22.33;;;12.67;;
24677;SDS011;12800;53.094;8.778;2022-12-11T12:41:35;48.33;;;27.10;;
24677;SDS011;12800;53.094;8.778;2022-12-11T12:46:48;24.20;;;13.63;;
24677;SDS011;12800;53.094;8.778;2022-12-11T12:49:38;24.67;;;13.67;;
24677;SDS011;12800;53.094;8.778;2022-12-11T12:52:10;21.10;;;13.47;;
24677;SDS011;12800;53.094;8.778;2022-12-11T12:54:43;21.27;;;12.20;;
24677;SDS011;12800;53.094;8.778;2022-12-11T12:57:32;23.83;;;12.97;;
24677;SDS011;12800;53.094;8.778;2022-12-11T12:59:58;29.40;;;17.63;;
24677;SDS011;12800;53.094;8.778;2022-12-11T13:02:24;27.97;;;16.07;;
24677;SDS011;12800;53.094;8.778;2022-12-11T13:04:59;28.63;;;14.90;;
24677;SDS011;12800;53.094;8.778;2022-12-11T13:07:31;25.47;;;13.17;;
24677;SDS011;12800;53.094;8.778;2022-12-11T13:12:47;22.33;;;13.13;;
24677;SDS011;12800;53.094;8.778;2022-12-11T13:21:03;21.37;;;13.17;;
24677;SDS011;12800;53.094;8.778;2022-12-11T13:23:53;23.57;;;13.57;;
24677;SDS011;12800;53.094;8.778;2022-12-11T13:26:29;25.83;;;14.30;;
24677;SDS011;12800;53.094;8.778;2022-12-11T13:28:56;22.90;;;13.93;;
24677;SDS011;12800;53.094;8.778;2022-12-11T13:34:05;24.83;;;14.20;;
24677;SDS011;12800;53.094;8.778;2022-12-11T13:36:37;23.47;;;13.53;;
24677;SDS011;12800;53.094;8.778;2022-12-11T13:39:06;22.57;;;13.97;;
24677;SDS011;12800;53.094;8.778;2022-12-11T13:41:42;22.73;;;13.07;;
24677;SDS011;12800;53.094;8.778;2022-12-11T13:44:11;29.30;;;15.47;;
24677;SDS011;12800;53.094;8.778;2022-12-11T13:46:44;22.33;;;13.90;;
24677;SDS011;12800;53.094;8.778;2022-12-11T13:49:17;27.63;;;15.20;;
24677;SDS011;12800;53.094;8.778;2022-12-11T13:52:00;23.77;;;13.70;;
24677;SDS011;12800;53.094;8.778;2022-12-11T13:54:29;25.60;;;14.37;;
24677;SDS011;12800;53.094;8.778;2022-12-11T13:56:57;26.93;;;14.10;;
24677;SDS011;12800;53.094;8.778;2022-12-11T13:59:26;25.43;;;14.53;;
24677;SDS011;12800;53.094;8.778;2022-12-11T14:01:55;31.90;;;16.50;;
24677;SDS011;12800;53.094;8.778;2022-12-11T14:04:23;26.90;;;13.53;;
24677;SDS011;12800;53.094;8.778;2022-12-11T14:06:52;30.43;;;15.60;;
24677;SDS011;12800;53.094;8.778;2022-12-11T14:09:19;27.37;;;15.23;;
24677;SDS011;12800;53.094;8.778;2022-12-11T14:11:49;26.10;;;15.40;;
24677;SDS011;12800;53.094;8.778;2022-12-11T14:14:18;25.57;;;13.73;;
24677;SDS011;12800;53.094;8.778;2022-12-11T14:16:47;28.13;;;15.23;;
24677;SDS011;12800;53.094;8.778;2022-12-11T14:19:15;29.80;;;14.67;;
24677;SDS011;12800;53.094;8.778;2022-12-11T14:21:53;30.20;;;16.20;;
24677;SDS011;12800;53.094;8.778;2022-12-11T14:24:20;29.43;;;15.30;;
24677;SDS011;12800;53.094;8.778;2022-12-11T14:26:49;24.77;;;14.00;;
24677;SDS011;12800;53.094;8.778;2022-12-11T14:32:12;23.27;;;13.80;;
24677;SDS011;12800;53.094;8.778;2022-12-11T14:34:55;29.13;;;14.77;;
24677;SDS011;12800;53.094;8.778;2022-12-11T14:37:21;24.13;;;14.07;;
24677;SDS011;12800;53.094;8.778;2022-12-11T14:39:59;25.77;;;15.03;;
24677;SDS011;12800;53.094;8.778;2022-12-11T14:42:26;27.33;;;14.67;;
24677;SDS011;12800;53.094;8.778;2022-12-11T14:45:07;27.27;;;14.10;;
24677;SDS011;12800;53.094;8.778;2022-12-11T14:47:43;26.33;;;15.00;;
24677;SDS011;12800;53.094;8.778;2022-12-11T14:50:22;29.77;;;15.27;;
24677;SDS011;12800;53.094;8.778;2022-12-11T14:52:56;29.43;;;15.27;;
24677;SDS011;12800;53.094;8.778;2022-12-11T14:55:32;26.27;;;15.00;;
24677;SDS011;12800;53.094;8.778;2022-12-11T14:58:21;27.00;;;15.07;;
24677;SDS011;12800;53.094;8.778;2022-12-11T15:03:23;27.63;;;14.83;;
24677;SDS011;12800;53.094;8.778;2022-12-11T15:05:54;29.93;;;16.20;;
24677;SDS011;12800;53.094;8.778;2022-12-11T15:08:25;33.50;;;15.73;;
24677;SDS011;12800;53.094;8.778;2022-12-11T15:13:31;30.13;;;16.07;;
24677;SDS011;12800;53.094;8.778;2022-12-11T15:15:58;25.37;;;15.47;;
24677;SDS011;12800;53.094;8.778;2022-12-11T15:18:29;28.57;;;15.13;;
24677;SDS011;12800;53.094;8.778;2022-12-11T15:21:04;28.60;;;15.70;;
24677;SDS011;12800;53.094;8.778;2022-12-11T15:23:55;29.07;;;16.60;;
24677;SDS011;12800;53.094;8.778;2022-12-11T15:26:31;27.83;;;18.00;;
24677;SDS011;12800;53.094;8.778;2022-12-11T15:29:23;29.80;;;16.73;;
24677;SDS011;12800;53.094;8.778;2022-12-11T15:32:14;29.90;;;16.33;;
24677;SDS011;12800;53.094;8.778;2022-12-11T15:34:45;32.33;;;16.70;;
24677;SDS011;12800;53.094;8.778;2022-12-11T15:37:28;29.63;;;15.67;;
24677;SDS011;12800;53.094;8.778;2022-12-11T15:39:56;32.77;;;17.23;;
24677;SDS011;12800;53.094;8.778;2022-12-11T15:42:31;34.97;;;18.37;;
24677;SDS011;12800;53.094;8.778;2022-12-11T15:45:06;34.33;;;17.70;;
24677;SDS011;12800;53.094;8.778;2022-12-11T15:47:33;32.83;;;17.47;;
24677;SDS011;12800;53.094;8.778;2022-12-11T15:49:59;32.00;;;17.47;;
24677;SDS011;12800;53.094;8.778;2022-12-11T15:52:37;30.93;;;16.37;;
24677;SDS011;12800;53.094;8.778;2022-12-11T15:55:02;32.27;;;15.10;;
24677;SDS011;12800;53.094;8.778;2022-12-11T15:57:30;29.87;;;14.37;;
24677;SDS011;12800;53.094;8.778;2022-12-11T15:59:55;27.50;;;14.60;;
24677;SDS011;12800;53.094;8.778;2022-12-11T16:02:22;31.40;;;14.17;;